sensor_id;sensor_type;location;lat;lon;timestamp;P1;durP1;ratioP1;P2;durP2;ratioP2
8665;SDS011;4370;48.916;8.380;2023-04-24T00:02:03;1.17;;;1.07;;
8665;SDS011;4370;48.916;8.380;2023-04-24T00:04:29;1.90;;;1.10;;
8665;SDS011;4370;48.916;8.380;2023-04-24T00:06:56;1.60;;;1.20;;
8665;SDS011;4370;48.916;8.380;2023-04-24T00:09:24;1.30;;;1.20;;
8665;SDS011;4370;48.916;8.380;2023-04-24T00:11:51;1.20;;;1.10;;
8665;SDS011;4370;48.916;8.380;2023-04-24T00:14:17;4.23;;;1.07;;
8665;SDS011;4370;48.916;8.380;2023-04-24T00:16:43;1.63;;;1.20;;
8665;SDS011;4370;48.916;8.380;2023-04-24T00:19:09;1.37;;;1.20;;
8665;SDS011;4370;48.916;8.380;2023-04-24T00:21:37;3.27;;;1.30;;
8665;SDS011;4370;48.916;8.380;2023-04-24T00:24:03;2.43;;;1.30;;
8665;SDS011;4370;48.916;8.380;2023-04-24T00:26:29;2.07;;;1.13;;
8665;SDS011;4370;48.916;8.380;2023-04-24T00:28:55;2.13;;;1.00;;
8665;SDS011;4370;48.916;8.380;2023-04-24T00:31:21;3.57;;;1.27;;
8665;SDS011;4370;48.916;8.380;2023-04-24T00:33:47;1.60;;;1.00;;
8665;SDS011;4370;48.916;8.380;2023-04-24T00:36:13;3.90;;;1.40;;
8665;SDS011;4370;48.916;8.380;2023-04-24T00:38:40;3.07;;;1.17;;
8665;SDS011;4370;48.916;8.380;2023-04-24T00:41:05;4.67;;;1.20;;
8665;SDS011;4370;48.916;8.380;2023-04-24T00:46:17;1.30;;;1.17;;
8665;SDS011;4370;48.916;8.380;2023-04-24T00:48:43;1.47;;;1.00;;
8665;SDS011;4370;48.916;8.380;2023-04-24T00:51:09;1.93;;;1.10;;
8665;SDS011;4370;48.916;8.380;2023-04-24T00:53:35;1.40;;;1.00;;
8665;SDS011;4370;48.916;8.380;2023-04-24T00:56:01;1.17;;;1.00;;
8665;SDS011;4370;48.916;8.380;2023-04-24T00:58:27;1.90;;;1.37;;
8665;SDS011;4370;48.916;8.380;2023-04-24T01:00:55;2.80;;;1.10;;
8665;SDS011;4370;48.916;8.380;2023-04-24T01:03:22;1.33;;;1.00;;
8665;SDS011;4370;48.916;8.380;2023-04-24T01:05:52;1.83;;;1.03;;
8665;SDS011;4370;48.916;8.380;2023-04-24T01:08:19;1.20;;;0.90;;
8665;SDS011;4370;48.916;8.380;2023-04-24T01:10:45;1.20;;;1.10;;
8665;SDS011;4370;48.916;8.380;2023-04-24T01:13:14;1.97;;;1.00;;
8665;SDS011;4370;48.916;8.380;2023-04-24T01:15:40;1.93;;;1.10;;
8665;SDS011;4370;48.916;8.380;2023-04-24T01:18:07;2.60;;;1.10;;
8665;SDS011;4370;48.916;8.380;2023-04-24T01:20:32;2.57;;;1.23;;
8665;SDS011;4370;48.916;8.380;2023-04-24T01:22:59;2.07;;;1.30;;
8665;SDS011;4370;48.916;8.380;2023-04-24T01:25:25;1.13;;;1.00;;
8665;SDS011;4370;48.916;8.380;2023-04-24T01:27:51;1.47;;;1.30;;
8665;SDS011;4370;48.916;8.380;2023-04-24T01:30:17;3.30;;;1.43;;
8665;SDS011;4370;48.916;8.380;2023-04-24T01:32:45;1.87;;;1.20;;
8665;SDS011;4370;48.916;8.380;2023-04-24T01:35:11;1.30;;;1.20;;
8665;SDS011;4370;48.916;8.380;2023-04-24T01:37:37;2.47;;;1.23;;
8665;SDS011;4370;48.916;8.380;2023-04-24T01:40:04;3.13;;;1.27;;
8665;SDS011;4370;48.916;8.380;2023-04-24T01:42:31;2.53;;;1.30;;
8665;SDS011;4370;48.916;8.380;2023-04-24T01:44:58;1.00;;;0.90;;
8665;SDS011;4370;48.916;8.380;2023-04-24T01:47:25;2.73;;;1.03;;
8665;SDS011;4370;48.916;8.380;2023-04-24T01:49:50;3.63;;;1.30;;
8665;SDS011;4370;48.916;8.380;2023-04-24T01:52:16;1.57;;;1.10;;
8665;SDS011;4370;48.916;8.380;2023-04-24T01:54:43;1.10;;;1.00;;
8665;SDS011;4370;48.916;8.380;2023-04-24T01:57:18;2.90;;;1.00;;
8665;SDS011;4370;48.916;8.380;2023-04-24T01:59:44;2.13;;;1.13;;
8665;SDS011;4370;48.916;8.380;2023-04-24T02:02:10;2.63;;;1.17;;
8665;SDS011;4370;48.916;8.380;2023-04-24T02:04:36;2.23;;;1.00;;
8665;SDS011;4370;48.916;8.380;2023-04-24T02:07:02;1.47;;;1.00;;
8665;SDS011;4370;48.916;8.380;2023-04-24T02:09:28;3.70;;;1.10;;
8665;SDS011;4370;48.916;8.380;2023-04-24T02:11:54;1.67;;;1.00;;
8665;SDS011;4370;48.916;8.380;2023-04-24T02:14:21;4.60;;;1.10;;
8665;SDS011;4370;48.916;8.380;2023-04-24T02:16:47;3.53;;;1.17;;
8665;SDS011;4370;48.916;8.380;2023-04-24T02:19:13;1.97;;;1.00;;
8665;SDS011;4370;48.916;8.380;2023-04-24T02:21:43;2.27;;;1.20;;
8665;SDS011;4370;48.916;8.380;2023-04-24T02:24:08;2.13;;;1.30;;
8665;SDS011;4370;48.916;8.380;2023-04-24T02:26:35;2.37;;;1.30;;
8665;SDS011;4370;48.916;8.380;2023-04-24T02:29:01;8.57;;;1.50;;
8665;SDS011;4370;48.916;8.380;2023-04-24T02:31:27;3.30;;;1.33;;
8665;SDS011;4370;48.916;8.380;2023-04-24T02:34:14;2.47;;;1.10;;
8665;SDS011;4370;48.916;8.380;2023-04-24T02:40:04;1.43;;;0.97;;
8665;SDS011;4370;48.916;8.380;2023-04-24T02:42:30;2.93;;;1.10;;
8665;SDS011;4370;48.916;8.380;2023-04-24T02:47:40;1.67;;;1.13;;
8665;SDS011;4370;48.916;8.380;2023-04-24T02:50:06;2.87;;;1.07;;
8665;SDS011;4370;48.916;8.380;2023-04-24T02:52:33;2.70;;;1.17;;
8665;SDS011;4370;48.916;8.380;2023-04-24T02:54:58;2.33;;;1.20;;
8665;SDS011;4370;48.916;8.380;2023-04-24T02:57:24;2.03;;;1.07;;
8665;SDS011;4370;48.916;8.380;2023-04-24T02:59:50;2.37;;;1.37;;
8665;SDS011;4370;48.916;8.380;2023-04-24T03:02:16;4.60;;;1.00;;
8665;SDS011;4370;48.916;8.380;2023-04-24T03:04:42;4.43;;;1.20;;
8665;SDS011;4370;48.916;8.380;2023-04-24T03:07:08;3.23;;;1.20;;
8665;SDS011;4370;48.916;8.380;2023-04-24T03:09:34;2.93;;;1.27;;
8665;SDS011;4370;48.916;8.380;2023-04-24T03:12:00;1.83;;;1.30;;
8665;SDS011;4370;48.916;8.380;2023-04-24T03:14:26;2.60;;;1.20;;
8665;SDS011;4370;48.916;8.380;2023-04-24T03:16:51;1.20;;;1.07;;
8665;SDS011;4370;48.916;8.380;2023-04-24T03:19:17;1.83;;;1.20;;
8665;SDS011;4370;48.916;8.380;2023-04-24T03:21:43;1.93;;;1.20;;
8665;SDS011;4370;48.916;8.380;2023-04-24T03:24:09;3.73;;;1.23;;
8665;SDS011;4370;48.916;8.380;2023-04-24T03:26:35;2.90;;;1.10;;
8665;SDS011;4370;48.916;8.380;2023-04-24T03:29:01;3.47;;;1.20;;
8665;SDS011;4370;48.916;8.380;2023-04-24T03:31:27;2.30;;;1.03;;
8665;SDS011;4370;48.916;8.380;2023-04-24T03:33:53;1.30;;;1.20;;
8665;SDS011;4370;48.916;8.380;2023-04-24T03:36:19;3.73;;;1.23;;
8665;SDS011;4370;48.916;8.380;2023-04-24T03:38:45;2.17;;;1.30;;
8665;SDS011;4370;48.916;8.380;2023-04-24T03:41:11;3.33;;;1.40;;
8665;SDS011;4370;48.916;8.380;2023-04-24T03:43:40;6.33;;;1.40;;
8665;SDS011;4370;48.916;8.380;2023-04-24T03:46:05;3.87;;;1.90;;
8665;SDS011;4370;48.916;8.380;2023-04-24T03:48:34;2.50;;;1.60;;
8665;SDS011;4370;48.916;8.380;2023-04-24T03:51:00;4.20;;;1.80;;
8665;SDS011;4370;48.916;8.380;2023-04-24T03:53:26;2.27;;;1.70;;
8665;SDS011;4370;48.916;8.380;2023-04-24T03:55:53;2.33;;;1.73;;
8665;SDS011;4370;48.916;8.380;2023-04-24T03:58:20;2.27;;;1.97;;
8665;SDS011;4370;48.916;8.380;2023-04-24T04:00:46;2.10;;;1.90;;
8665;SDS011;4370;48.916;8.380;2023-04-24T04:03:13;2.17;;;1.90;;
8665;SDS011;4370;48.916;8.380;2023-04-24T04:05:41;2.83;;;1.90;;
8665;SDS011;4370;48.916;8.380;2023-04-24T04:08:07;4.70;;;1.90;;
8665;SDS011;4370;48.916;8.380;2023-04-24T04:10:33;4.33;;;1.83;;
8665;SDS011;4370;48.916;8.380;2023-04-24T04:12:58;3.70;;;2.20;;
8665;SDS011;4370;48.916;8.380;2023-04-24T04:15:32;2.90;;;1.87;;
8665;SDS011;4370;48.916;8.380;2023-04-24T04:17:58;1.97;;;1.87;;
8665;SDS011;4370;48.916;8.380;2023-04-24T04:20:26;5.83;;;2.77;;
8665;SDS011;4370;48.916;8.380;2023-04-24T04:23:23;4.23;;;2.23;;
8665;SDS011;4370;48.916;8.380;2023-04-24T04:25:49;2.60;;;1.83;;
8665;SDS011;4370;48.916;8.380;2023-04-24T04:28:24;3.70;;;2.10;;
8665;SDS011;4370;48.916;8.380;2023-04-24T04:30:50;3.70;;;2.17;;
8665;SDS011;4370;48.916;8.380;2023-04-24T04:34:04;2.90;;;2.10;;
8665;SDS011;4370;48.916;8.380;2023-04-24T04:36:13;3.63;;;2.17;;
8665;SDS011;4370;48.916;8.380;2023-04-24T04:38:44;4.67;;;2.00;;
8665;SDS011;4370;48.916;8.380;2023-04-24T04:41:10;2.90;;;2.30;;
8665;SDS011;4370;48.916;8.380;2023-04-24T04:43:36;3.07;;;2.10;;
8665;SDS011;4370;48.916;8.380;2023-04-24T04:46:04;3.80;;;2.33;;
8665;SDS011;4370;48.916;8.380;2023-04-24T04:48:39;2.40;;;2.13;;
8665;SDS011;4370;48.916;8.380;2023-04-24T04:51:05;3.97;;;2.10;;
8665;SDS011;4370;48.916;8.380;2023-04-24T04:53:31;2.37;;;2.10;;
8665;SDS011;4370;48.916;8.380;2023-04-24T04:56:43;2.57;;;2.20;;
8665;SDS011;4370;48.916;8.380;2023-04-24T04:58:53;2.60;;;2.40;;
8665;SDS011;4370;48.916;8.380;2023-04-24T05:01:19;2.80;;;2.20;;
8665;SDS011;4370;48.916;8.380;2023-04-24T05:03:47;3.70;;;2.20;;
8665;SDS011;4370;48.916;8.380;2023-04-24T05:06:13;3.87;;;2.80;;
8665;SDS011;4370;48.916;8.380;2023-04-24T05:08:40;2.63;;;2.40;;
8665;SDS011;4370;48.916;8.380;2023-04-24T05:11:06;2.70;;;2.30;;
8665;SDS011;4370;48.916;8.380;2023-04-24T05:13:32;4.90;;;2.50;;
8665;SDS011;4370;48.916;8.380;2023-04-24T05:15:58;5.10;;;2.40;;
8665;SDS011;4370;48.916;8.380;2023-04-24T05:18:24;2.47;;;2.00;;
8665;SDS011;4370;48.916;8.380;2023-04-24T05:20:50;4.07;;;2.10;;
8665;SDS011;4370;48.916;8.380;2023-04-24T05:23:16;3.80;;;2.40;;
8665;SDS011;4370;48.916;8.380;2023-04-24T05:25:42;2.30;;;2.10;;
8665;SDS011;4370;48.916;8.380;2023-04-24T05:28:08;2.20;;;1.77;;
8665;SDS011;4370;48.916;8.380;2023-04-24T05:30:33;2.60;;;2.40;;
8665;SDS011;4370;48.916;8.380;2023-04-24T05:32:59;3.37;;;2.47;;
8665;SDS011;4370;48.916;8.380;2023-04-24T05:35:25;3.87;;;2.50;;
8665;SDS011;4370;48.916;8.380;2023-04-24T05:37:51;3.03;;;2.60;;
8665;SDS011;4370;48.916;8.380;2023-04-24T05:40:17;2.40;;;2.20;;
8665;SDS011;4370;48.916;8.380;2023-04-24T05:42:43;3.23;;;2.50;;
8665;SDS011;4370;48.916;8.380;2023-04-24T05:45:09;4.03;;;2.80;;
8665;SDS011;4370;48.916;8.380;2023-04-24T05:47:41;2.57;;;2.20;;
8665;SDS011;4370;48.916;8.380;2023-04-24T05:50:07;3.67;;;2.40;;
8665;SDS011;4370;48.916;8.380;2023-04-24T05:52:33;2.63;;;2.20;;
8665;SDS011;4370;48.916;8.380;2023-04-24T05:54:59;2.73;;;2.27;;
8665;SDS011;4370;48.916;8.380;2023-04-24T05:57:25;3.90;;;2.23;;
8665;SDS011;4370;48.916;8.380;2023-04-24T05:59:51;3.07;;;2.10;;
8665;SDS011;4370;48.916;8.380;2023-04-24T06:02:17;3.17;;;2.10;;
8665;SDS011;4370;48.916;8.380;2023-04-24T06:04:43;1.90;;;1.70;;
8665;SDS011;4370;48.916;8.380;2023-04-24T06:07:12;3.77;;;2.53;;
8665;SDS011;4370;48.916;8.380;2023-04-24T06:09:38;4.93;;;2.13;;
8665;SDS011;4370;48.916;8.380;2023-04-24T06:12:03;2.37;;;2.17;;
8665;SDS011;4370;48.916;8.380;2023-04-24T06:14:30;3.07;;;2.03;;
8665;SDS011;4370;48.916;8.380;2023-04-24T06:16:55;4.07;;;1.80;;
8665;SDS011;4370;48.916;8.380;2023-04-24T06:19:22;2.37;;;1.83;;
8665;SDS011;4370;48.916;8.380;2023-04-24T06:21:48;2.70;;;2.00;;
8665;SDS011;4370;48.916;8.380;2023-04-24T06:24:14;3.33;;;1.87;;
8665;SDS011;4370;48.916;8.380;2023-04-24T06:26:41;2.33;;;1.90;;
8665;SDS011;4370;48.916;8.380;2023-04-24T06:29:07;2.37;;;2.10;;
8665;SDS011;4370;48.916;8.380;2023-04-24T06:31:32;2.47;;;2.00;;
8665;SDS011;4370;48.916;8.380;2023-04-24T06:34:02;2.97;;;2.10;;
8665;SDS011;4370;48.916;8.380;2023-04-24T06:36:28;2.67;;;2.03;;
8665;SDS011;4370;48.916;8.380;2023-04-24T06:38:53;2.20;;;1.90;;
8665;SDS011;4370;48.916;8.380;2023-04-24T06:41:19;3.50;;;1.80;;
8665;SDS011;4370;48.916;8.380;2023-04-24T06:43:45;2.83;;;1.80;;
8665;SDS011;4370;48.916;8.380;2023-04-24T06:46:11;2.13;;;1.70;;
8665;SDS011;4370;48.916;8.380;2023-04-24T06:48:37;4.10;;;2.23;;
8665;SDS011;4370;48.916;8.380;2023-04-24T06:51:03;3.47;;;1.90;;
8665;SDS011;4370;48.916;8.380;2023-04-24T06:53:29;3.90;;;2.10;;
8665;SDS011;4370;48.916;8.380;2023-04-24T06:55:55;2.10;;;1.90;;
8665;SDS011;4370;48.916;8.380;2023-04-24T06:58:21;2.97;;;1.80;;
8665;SDS011;4370;48.916;8.380;2023-04-24T07:00:47;2.77;;;2.10;;
8665;SDS011;4370;48.916;8.380;2023-04-24T07:03:13;3.40;;;2.03;;
8665;SDS011;4370;48.916;8.380;2023-04-24T07:05:38;4.67;;;1.83;;
8665;SDS011;4370;48.916;8.380;2023-04-24T07:08:04;4.43;;;2.07;;
8665;SDS011;4370;48.916;8.380;2023-04-24T07:10:31;3.77;;;1.90;;
8665;SDS011;4370;48.916;8.380;2023-04-24T07:12:59;4.37;;;2.00;;
8665;SDS011;4370;48.916;8.380;2023-04-24T07:15:25;1.57;;;1.47;;
8665;SDS011;4370;48.916;8.380;2023-04-24T07:17:50;3.23;;;1.60;;
8665;SDS011;4370;48.916;8.380;2023-04-24T07:20:16;3.63;;;1.53;;
8665;SDS011;4370;48.916;8.380;2023-04-24T07:22:42;1.40;;;1.30;;
8665;SDS011;4370;48.916;8.380;2023-04-24T07:25:08;4.00;;;1.40;;
8665;SDS011;4370;48.916;8.380;2023-04-24T07:27:34;1.60;;;1.13;;
8665;SDS011;4370;48.916;8.380;2023-04-24T07:30:01;2.50;;;1.40;;
8665;SDS011;4370;48.916;8.380;2023-04-24T07:32:28;2.57;;;1.60;;
8665;SDS011;4370;48.916;8.380;2023-04-24T07:34:54;2.90;;;1.27;;
8665;SDS011;4370;48.916;8.380;2023-04-24T07:37:20;2.43;;;1.30;;
8665;SDS011;4370;48.916;8.380;2023-04-24T07:39:46;1.90;;;1.43;;
8665;SDS011;4370;48.916;8.380;2023-04-24T07:42:12;1.73;;;1.47;;
8665;SDS011;4370;48.916;8.380;2023-04-24T07:44:38;2.43;;;1.43;;
8665;SDS011;4370;48.916;8.380;2023-04-24T07:47:04;3.17;;;1.70;;
8665;SDS011;4370;48.916;8.380;2023-04-24T07:49:30;4.90;;;1.80;;
8665;SDS011;4370;48.916;8.380;2023-04-24T07:51:56;2.63;;;1.63;;
8665;SDS011;4370;48.916;8.380;2023-04-24T07:54:22;2.90;;;1.50;;
8665;SDS011;4370;48.916;8.380;2023-04-24T07:56:48;3.97;;;1.83;;
8665;SDS011;4370;48.916;8.380;2023-04-24T07:59:14;2.53;;;1.40;;
8665;SDS011;4370;48.916;8.380;2023-04-24T08:01:41;1.97;;;1.40;;
8665;SDS011;4370;48.916;8.380;2023-04-24T08:04:07;2.17;;;1.60;;
8665;SDS011;4370;48.916;8.380;2023-04-24T08:06:32;2.73;;;1.67;;
8665;SDS011;4370;48.916;8.380;2023-04-24T08:08:59;3.67;;;1.40;;
8665;SDS011;4370;48.916;8.380;2023-04-24T08:11:25;3.13;;;1.33;;
8665;SDS011;4370;48.916;8.380;2023-04-24T08:13:51;2.03;;;1.33;;
8665;SDS011;4370;48.916;8.380;2023-04-24T08:16:17;3.00;;;1.50;;
8665;SDS011;4370;48.916;8.380;2023-04-24T08:18:42;7.47;;;1.73;;
8665;SDS011;4370;48.916;8.380;2023-04-24T08:21:08;2.03;;;1.50;;
8665;SDS011;4370;48.916;8.380;2023-04-24T08:23:34;4.37;;;1.70;;
8665;SDS011;4370;48.916;8.380;2023-04-24T08:26:00;3.37;;;1.63;;
8665;SDS011;4370;48.916;8.380;2023-04-24T08:28:26;3.80;;;1.57;;
8665;SDS011;4370;48.916;8.380;2023-04-24T08:30:52;2.37;;;1.63;;
8665;SDS011;4370;48.916;8.380;2023-04-24T08:33:22;4.23;;;2.03;;
8665;SDS011;4370;48.916;8.380;2023-04-24T08:35:49;1.50;;;1.40;;
8665;SDS011;4370;48.916;8.380;2023-04-24T08:38:15;2.70;;;1.70;;
8665;SDS011;4370;48.916;8.380;2023-04-24T08:40:41;3.97;;;1.47;;
8665;SDS011;4370;48.916;8.380;2023-04-24T08:43:08;3.03;;;1.57;;
8665;SDS011;4370;48.916;8.380;2023-04-24T08:45:35;3.30;;;1.37;;
8665;SDS011;4370;48.916;8.380;2023-04-24T08:48:01;2.40;;;1.53;;
8665;SDS011;4370;48.916;8.380;2023-04-24T08:50:27;2.30;;;1.67;;
8665;SDS011;4370;48.916;8.380;2023-04-24T08:52:54;3.20;;;1.50;;
8665;SDS011;4370;48.916;8.380;2023-04-24T08:55:21;2.10;;;1.57;;
8665;SDS011;4370;48.916;8.380;2023-04-24T08:57:49;2.57;;;1.40;;
8665;SDS011;4370;48.916;8.380;2023-04-24T09:00:17;3.70;;;1.70;;
8665;SDS011;4370;48.916;8.380;2023-04-24T09:02:44;2.30;;;1.83;;
8665;SDS011;4370;48.916;8.380;2023-04-24T09:05:12;2.37;;;1.77;;
8665;SDS011;4370;48.916;8.380;2023-04-24T09:07:39;2.87;;;1.50;;
8665;SDS011;4370;48.916;8.380;2023-04-24T09:10:06;2.10;;;1.47;;
8665;SDS011;4370;48.916;8.380;2023-04-24T09:12:33;4.77;;;1.53;;
8665;SDS011;4370;48.916;8.380;2023-04-24T09:15:00;3.63;;;1.97;;
8665;SDS011;4370;48.916;8.380;2023-04-24T09:17:28;1.90;;;1.60;;
8665;SDS011;4370;48.916;8.380;2023-04-24T09:19:54;4.27;;;1.63;;
8665;SDS011;4370;48.916;8.380;2023-04-24T09:22:20;2.60;;;1.50;;
8665;SDS011;4370;48.916;8.380;2023-04-24T09:24:46;4.30;;;1.80;;
8665;SDS011;4370;48.916;8.380;2023-04-24T09:27:13;2.57;;;1.80;;
8665;SDS011;4370;48.916;8.380;2023-04-24T09:29:45;3.03;;;1.80;;
8665;SDS011;4370;48.916;8.380;2023-04-24T09:32:22;7.37;;;1.90;;
8665;SDS011;4370;48.916;8.380;2023-04-24T09:35:04;3.80;;;2.20;;
8665;SDS011;4370;48.916;8.380;2023-04-24T09:37:34;2.93;;;2.00;;
8665;SDS011;4370;48.916;8.380;2023-04-24T09:42:37;5.57;;;2.17;;
8665;SDS011;4370;48.916;8.380;2023-04-24T09:45:04;5.63;;;2.60;;
8665;SDS011;4370;48.916;8.380;2023-04-24T09:47:37;2.70;;;1.80;;
8665;SDS011;4370;48.916;8.380;2023-04-24T09:50:09;1.90;;;1.70;;
8665;SDS011;4370;48.916;8.380;2023-04-24T09:52:45;1.80;;;1.67;;
8665;SDS011;4370;48.916;8.380;2023-04-24T09:55:21;2.73;;;2.17;;
8665;SDS011;4370;48.916;8.380;2023-04-24T09:57:54;2.63;;;1.80;;
8665;SDS011;4370;48.916;8.380;2023-04-24T10:03:01;3.07;;;1.80;;
8665;SDS011;4370;48.916;8.380;2023-04-24T10:10:50;2.43;;;1.73;;
8665;SDS011;4370;48.916;8.380;2023-04-24T10:13:16;2.63;;;1.70;;
8665;SDS011;4370;48.916;8.380;2023-04-24T10:15:42;2.07;;;1.80;;
8665;SDS011;4370;48.916;8.380;2023-04-24T10:18:08;3.53;;;1.83;;
8665;SDS011;4370;48.916;8.380;2023-04-24T10:20:35;2.80;;;1.63;;
8665;SDS011;4370;48.916;8.380;2023-04-24T10:23:02;3.23;;;1.90;;
8665;SDS011;4370;48.916;8.380;2023-04-24T10:25:29;3.03;;;1.97;;
8665;SDS011;4370;48.916;8.380;2023-04-24T10:27:56;3.50;;;2.03;;
8665;SDS011;4370;48.916;8.380;2023-04-24T10:30:24;4.33;;;2.10;;
8665;SDS011;4370;48.916;8.380;2023-04-24T10:32:51;3.23;;;1.80;;
8665;SDS011;4370;48.916;8.380;2023-04-24T10:35:17;1.87;;;1.77;;
8665;SDS011;4370;48.916;8.380;2023-04-24T10:37:53;2.73;;;1.90;;
8665;SDS011;4370;48.916;8.380;2023-04-24T10:40:25;4.03;;;1.90;;
8665;SDS011;4370;48.916;8.380;2023-04-24T10:42:54;2.27;;;1.80;;
8665;SDS011;4370;48.916;8.380;2023-04-24T10:45:21;2.30;;;1.70;;
8665;SDS011;4370;48.916;8.380;2023-04-24T10:47:52;2.40;;;1.90;;
8665;SDS011;4370;48.916;8.380;2023-04-24T10:50:17;5.10;;;1.80;;
8665;SDS011;4370;48.916;8.380;2023-04-24T10:52:47;3.63;;;1.90;;
8665;SDS011;4370;48.916;8.380;2023-04-24T10:55:15;2.17;;;1.90;;
8665;SDS011;4370;48.916;8.380;2023-04-24T10:58:00;2.00;;;1.73;;
8665;SDS011;4370;48.916;8.380;2023-04-24T11:00:28;4.67;;;1.80;;
8665;SDS011;4370;48.916;8.380;2023-04-24T11:02:54;3.73;;;1.73;;
8665;SDS011;4370;48.916;8.380;2023-04-24T11:05:20;2.57;;;1.80;;
8665;SDS011;4370;48.916;8.380;2023-04-24T11:10:45;2.37;;;1.80;;
8665;SDS011;4370;48.916;8.380;2023-04-24T11:13:22;2.17;;;1.80;;
8665;SDS011;4370;48.916;8.380;2023-04-24T11:18:41;4.87;;;1.90;;
8665;SDS011;4370;48.916;8.380;2023-04-24T11:21:16;2.43;;;2.00;;
8665;SDS011;4370;48.916;8.380;2023-04-24T11:23:42;3.17;;;1.70;;
8665;SDS011;4370;48.916;8.380;2023-04-24T11:26:19;3.30;;;1.90;;
8665;SDS011;4370;48.916;8.380;2023-04-24T11:28:48;3.37;;;2.10;;
8665;SDS011;4370;48.916;8.380;2023-04-24T11:34:05;3.27;;;2.13;;
8665;SDS011;4370;48.916;8.380;2023-04-24T11:36:32;2.30;;;1.97;;
8665;SDS011;4370;48.916;8.380;2023-04-24T11:38:58;3.50;;;2.00;;
8665;SDS011;4370;48.916;8.380;2023-04-24T11:41:24;2.23;;;2.00;;
8665;SDS011;4370;48.916;8.380;2023-04-24T11:43:50;2.53;;;2.00;;
8665;SDS011;4370;48.916;8.380;2023-04-24T11:46:17;4.07;;;2.10;;
8665;SDS011;4370;48.916;8.380;2023-04-24T11:48:46;3.50;;;1.90;;
8665;SDS011;4370;48.916;8.380;2023-04-24T11:51:12;3.67;;;1.83;;
8665;SDS011;4370;48.916;8.380;2023-04-24T11:53:38;4.30;;;2.10;;
8665;SDS011;4370;48.916;8.380;2023-04-24T11:56:04;3.00;;;2.20;;
8665;SDS011;4370;48.916;8.380;2023-04-24T11:58:37;4.80;;;2.20;;
8665;SDS011;4370;48.916;8.380;2023-04-24T12:01:04;5.10;;;2.30;;
8665;SDS011;4370;48.916;8.380;2023-04-24T12:03:30;2.83;;;2.03;;
8665;SDS011;4370;48.916;8.380;2023-04-24T12:06:05;2.50;;;2.23;;
8665;SDS011;4370;48.916;8.380;2023-04-24T12:08:36;3.33;;;2.40;;
8665;SDS011;4370;48.916;8.380;2023-04-24T12:11:03;3.10;;;2.67;;
8665;SDS011;4370;48.916;8.380;2023-04-24T12:13:30;5.73;;;2.53;;
8665;SDS011;4370;48.916;8.380;2023-04-24T12:15:56;4.17;;;2.40;;
8665;SDS011;4370;48.916;8.380;2023-04-24T12:18:22;5.10;;;2.33;;
8665;SDS011;4370;48.916;8.380;2023-04-24T12:20:48;2.87;;;2.33;;
8665;SDS011;4370;48.916;8.380;2023-04-24T12:23:14;6.80;;;2.53;;
8665;SDS011;4370;48.916;8.380;2023-04-24T12:25:40;3.80;;;2.30;;
8665;SDS011;4370;48.916;8.380;2023-04-24T12:30:38;4.00;;;2.40;;
8665;SDS011;4370;48.916;8.380;2023-04-24T12:33:06;3.40;;;3.03;;
8665;SDS011;4370;48.916;8.380;2023-04-24T12:35:32;3.87;;;2.70;;
8665;SDS011;4370;48.916;8.380;2023-04-24T12:38:07;5.10;;;2.40;;
8665;SDS011;4370;48.916;8.380;2023-04-24T12:40:40;4.50;;;2.10;;
8665;SDS011;4370;48.916;8.380;2023-04-24T12:43:13;2.77;;;2.30;;
8665;SDS011;4370;48.916;8.380;2023-04-24T12:45:40;3.03;;;1.90;;
8665;SDS011;4370;48.916;8.380;2023-04-24T12:48:06;2.00;;;1.70;;
8665;SDS011;4370;48.916;8.380;2023-04-24T12:50:32;4.67;;;2.23;;
8665;SDS011;4370;48.916;8.380;2023-04-24T12:52:58;3.30;;;2.10;;
8665;SDS011;4370;48.916;8.380;2023-04-24T12:55:23;5.03;;;2.37;;
8665;SDS011;4370;48.916;8.380;2023-04-24T12:57:49;2.83;;;2.07;;
8665;SDS011;4370;48.916;8.380;2023-04-24T13:00:15;3.93;;;2.30;;
8665;SDS011;4370;48.916;8.380;2023-04-24T13:02:41;3.57;;;2.47;;
8665;SDS011;4370;48.916;8.380;2023-04-24T13:05:08;3.70;;;2.57;;
8665;SDS011;4370;48.916;8.380;2023-04-24T13:07:33;4.00;;;2.40;;
8665;SDS011;4370;48.916;8.380;2023-04-24T13:09:59;2.33;;;2.10;;
8665;SDS011;4370;48.916;8.380;2023-04-24T13:12:25;3.60;;;2.63;;
8665;SDS011;4370;48.916;8.380;2023-04-24T13:14:51;2.90;;;2.57;;
8665;SDS011;4370;48.916;8.380;2023-04-24T13:17:17;3.47;;;2.10;;
8665;SDS011;4370;48.916;8.380;2023-04-24T13:19:44;3.30;;;2.30;;
8665;SDS011;4370;48.916;8.380;2023-04-24T13:22:10;3.90;;;2.30;;
8665;SDS011;4370;48.916;8.380;2023-04-24T13:24:37;3.57;;;2.10;;
8665;SDS011;4370;48.916;8.380;2023-04-24T13:27:05;4.00;;;2.50;;
8665;SDS011;4370;48.916;8.380;2023-04-24T13:29:31;4.23;;;2.60;;
8665;SDS011;4370;48.916;8.380;2023-04-24T13:31:57;3.67;;;2.10;;
8665;SDS011;4370;48.916;8.380;2023-04-24T13:34:23;2.73;;;2.20;;
8665;SDS011;4370;48.916;8.380;2023-04-24T13:36:50;3.87;;;2.53;;
8665;SDS011;4370;48.916;8.380;2023-04-24T13:39:20;4.67;;;2.10;;
8665;SDS011;4370;48.916;8.380;2023-04-24T13:41:46;2.83;;;2.10;;
8665;SDS011;4370;48.916;8.380;2023-04-24T13:44:13;2.93;;;2.23;;
8665;SDS011;4370;48.916;8.380;2023-04-24T13:46:39;3.07;;;2.20;;
8665;SDS011;4370;48.916;8.380;2023-04-24T13:49:05;3.77;;;2.20;;
8665;SDS011;4370;48.916;8.380;2023-04-24T13:51:31;4.00;;;2.00;;
8665;SDS011;4370;48.916;8.380;2023-04-24T13:53:57;6.20;;;2.10;;
8665;SDS011;4370;48.916;8.380;2023-04-24T13:56:22;2.23;;;1.90;;
8665;SDS011;4370;48.916;8.380;2023-04-24T13:58:48;2.67;;;2.10;;
8665;SDS011;4370;48.916;8.380;2023-04-24T14:01:14;2.27;;;2.07;;
8665;SDS011;4370;48.916;8.380;2023-04-24T14:03:41;3.17;;;1.90;;
8665;SDS011;4370;48.916;8.380;2023-04-24T14:06:08;3.07;;;1.80;;
8665;SDS011;4370;48.916;8.380;2023-04-24T14:08:34;3.10;;;2.13;;
8665;SDS011;4370;48.916;8.380;2023-04-24T14:11:01;4.17;;;1.90;;
8665;SDS011;4370;48.916;8.380;2023-04-24T14:13:27;2.43;;;2.03;;
8665;SDS011;4370;48.916;8.380;2023-04-24T14:15:53;4.20;;;2.30;;
8665;SDS011;4370;48.916;8.380;2023-04-24T14:18:19;2.60;;;1.80;;
8665;SDS011;4370;48.916;8.380;2023-04-24T14:20:45;4.50;;;2.07;;
8665;SDS011;4370;48.916;8.380;2023-04-24T14:23:11;3.70;;;2.07;;
8665;SDS011;4370;48.916;8.380;2023-04-24T14:25:37;2.40;;;1.93;;
8665;SDS011;4370;48.916;8.380;2023-04-24T14:28:03;1.97;;;1.60;;
8665;SDS011;4370;48.916;8.380;2023-04-24T14:30:29;2.43;;;1.50;;
8665;SDS011;4370;48.916;8.380;2023-04-24T14:32:54;2.07;;;1.30;;
8665;SDS011;4370;48.916;8.380;2023-04-24T14:35:20;1.60;;;1.50;;
8665;SDS011;4370;48.916;8.380;2023-04-24T14:37:46;2.40;;;1.70;;
8665;SDS011;4370;48.916;8.380;2023-04-24T14:40:13;1.70;;;1.60;;
8665;SDS011;4370;48.916;8.380;2023-04-24T14:42:39;2.83;;;1.87;;
8665;SDS011;4370;48.916;8.380;2023-04-24T14:45:05;4.00;;;1.87;;
8665;SDS011;4370;48.916;8.380;2023-04-24T14:47:32;2.00;;;1.67;;
8665;SDS011;4370;48.916;8.380;2023-04-24T14:49:58;3.00;;;1.70;;
8665;SDS011;4370;48.916;8.380;2023-04-24T14:52:24;2.57;;;1.80;;
8665;SDS011;4370;48.916;8.380;2023-04-24T14:54:50;2.57;;;2.20;;
8665;SDS011;4370;48.916;8.380;2023-04-24T14:57:16;3.53;;;2.07;;
8665;SDS011;4370;48.916;8.380;2023-04-24T14:59:41;3.97;;;2.13;;
8665;SDS011;4370;48.916;8.380;2023-04-24T15:02:07;2.20;;;1.93;;
8665;SDS011;4370;48.916;8.380;2023-04-24T15:04:33;3.43;;;2.00;;
8665;SDS011;4370;48.916;8.380;2023-04-24T15:06:59;2.73;;;2.10;;
8665;SDS011;4370;48.916;8.380;2023-04-24T15:09:25;2.47;;;1.90;;
8665;SDS011;4370;48.916;8.380;2023-04-24T15:11:52;3.40;;;1.83;;
8665;SDS011;4370;48.916;8.380;2023-04-24T15:14:17;1.63;;;1.53;;
8665;SDS011;4370;48.916;8.380;2023-04-24T15:16:44;2.23;;;1.80;;
8665;SDS011;4370;48.916;8.380;2023-04-24T15:19:09;1.73;;;1.50;;
8665;SDS011;4370;48.916;8.380;2023-04-24T15:21:36;2.00;;;1.60;;
8665;SDS011;4370;48.916;8.380;2023-04-24T15:24:02;2.30;;;1.80;;
8665;SDS011;4370;48.916;8.380;2023-04-24T15:26:29;2.17;;;1.80;;
8665;SDS011;4370;48.916;8.380;2023-04-24T15:28:55;2.10;;;1.90;;
8665;SDS011;4370;48.916;8.380;2023-04-24T15:31:21;2.30;;;1.60;;
8665;SDS011;4370;48.916;8.380;2023-04-24T15:33:48;2.00;;;1.70;;
8665;SDS011;4370;48.916;8.380;2023-04-24T15:36:14;1.90;;;1.70;;
8665;SDS011;4370;48.916;8.380;2023-04-24T15:38:40;3.27;;;1.90;;
8665;SDS011;4370;48.916;8.380;2023-04-24T15:41:07;1.97;;;1.77;;
8665;SDS011;4370;48.916;8.380;2023-04-24T15:43:33;2.13;;;1.90;;
8665;SDS011;4370;48.916;8.380;2023-04-24T15:45:59;2.77;;;1.67;;